sensor_id;sensor_type;location;lat;lon;timestamp;P1;durP1;ratioP1;P2;durP2;ratioP2
13222;SDS011;6676;45.192;5.722;2023-07-29T00:02:29;4.43;;;3.40;;
13222;SDS011;6676;45.192;5.722;2023-07-29T00:05:21;5.47;;;3.22;;
13222;SDS011;6676;45.192;5.722;2023-07-29T00:08:12;3.75;;;2.80;;
13222;SDS011;6676;45.192;5.722;2023-07-29T00:11:04;3.80;;;3.00;;
13222;SDS011;6676;45.192;5.722;2023-07-29T00:16:34;3.40;;;2.77;;
13222;SDS011;6676;45.192;5.722;2023-07-29T00:22:05;4.33;;;2.85;;
13222;SDS011;6676;45.192;5.722;2023-07-29T00:24:57;3.87;;;2.98;;
13222;SDS011;6676;45.192;5.722;2023-07-29T00:27:48;3.00;;;2.70;;
13222;SDS011;6676;45.192;5.722;2023-07-29T00:30:41;4.15;;;2.80;;
13222;SDS011;6676;45.192;5.722;2023-07-29T00:36:12;2.90;;;2.60;;
13222;SDS011;6676;45.192;5.722;2023-07-29T00:39:03;4.08;;;2.77;;
13222;SDS011;6676;45.192;5.722;2023-07-29T00:41:54;2.92;;;2.60;;
13222;SDS011;6676;45.192;5.722;2023-07-29T00:44:45;4.25;;;3.17;;
13222;SDS011;6676;45.192;5.722;2023-07-29T00:47:36;3.37;;;3.08;;
13222;SDS011;6676;45.192;5.722;2023-07-29T00:50:28;3.47;;;3.02;;
13222;SDS011;6676;45.192;5.722;2023-07-29T00:53:21;4.22;;;3.58;;
13222;SDS011;6676;45.192;5.722;2023-07-29T00:56:12;3.35;;;2.95;;
13222;SDS011;6676;45.192;5.722;2023-07-29T00:59:03;4.15;;;3.40;;
13222;SDS011;6676;45.192;5.722;2023-07-29T01:01:55;4.80;;;3.40;;
13222;SDS011;6676;45.192;5.722;2023-07-29T01:04:46;5.15;;;2.92;;
13222;SDS011;6676;45.192;5.722;2023-07-29T01:07:44;3.70;;;3.37;;
13222;SDS011;6676;45.192;5.722;2023-07-29T01:10:39;3.35;;;3.05;;
13222;SDS011;6676;45.192;5.722;2023-07-29T01:16:17;5.00;;;3.17;;
13222;SDS011;6676;45.192;5.722;2023-07-29T01:19:13;4.28;;;3.25;;
13222;SDS011;6676;45.192;5.722;2023-07-29T01:21:53;4.80;;;3.30;;
13222;SDS011;6676;45.192;5.722;2023-07-29T01:24:45;3.45;;;3.12;;
13222;SDS011;6676;45.192;5.722;2023-07-29T01:27:37;4.08;;;2.95;;
13222;SDS011;6676;45.192;5.722;2023-07-29T01:30:30;3.77;;;3.20;;
13222;SDS011;6676;45.192;5.722;2023-07-29T01:33:13;6.60;;;3.37;;
13222;SDS011;6676;45.192;5.722;2023-07-29T01:36:07;4.47;;;3.20;;
13222;SDS011;6676;45.192;5.722;2023-07-29T01:39:02;7.08;;;4.65;;
13222;SDS011;6676;45.192;5.722;2023-07-29T01:41:54;5.12;;;4.03;;
13222;SDS011;6676;45.192;5.722;2023-07-29T01:44:47;8.30;;;5.90;;
13222;SDS011;6676;45.192;5.722;2023-07-29T01:47:38;6.72;;;4.40;;
13222;SDS011;6676;45.192;5.722;2023-07-29T01:53:08;7.37;;;4.28;;
13222;SDS011;6676;45.192;5.722;2023-07-29T01:55:59;6.55;;;4.50;;
13222;SDS011;6676;45.192;5.722;2023-07-29T01:58:51;6.33;;;4.00;;
13222;SDS011;6676;45.192;5.722;2023-07-29T02:01:42;7.65;;;5.00;;
13222;SDS011;6676;45.192;5.722;2023-07-29T02:04:34;10.53;;;6.00;;
13222;SDS011;6676;45.192;5.722;2023-07-29T02:07:27;5.15;;;3.70;;
13222;SDS011;6676;45.192;5.722;2023-07-29T02:10:18;7.20;;;4.50;;
13222;SDS011;6676;45.192;5.722;2023-07-29T02:13:09;7.10;;;5.47;;
13222;SDS011;6676;45.192;5.722;2023-07-29T02:16:01;8.80;;;5.65;;
13222;SDS011;6676;45.192;5.722;2023-07-29T02:18:52;15.72;;;9.03;;
13222;SDS011;6676;45.192;5.722;2023-07-29T02:21:44;12.55;;;6.97;;
13222;SDS011;6676;45.192;5.722;2023-07-29T02:24:35;6.45;;;4.67;;
13222;SDS011;6676;45.192;5.722;2023-07-29T02:27:27;4.72;;;3.92;;
13222;SDS011;6676;45.192;5.722;2023-07-29T02:30:19;5.50;;;3.80;;
13222;SDS011;6676;45.192;5.722;2023-07-29T02:33:11;4.58;;;3.20;;
13222;SDS011;6676;45.192;5.722;2023-07-29T02:36:03;4.42;;;3.47;;
13222;SDS011;6676;45.192;5.722;2023-07-29T02:38:55;4.42;;;3.85;;
13222;SDS011;6676;45.192;5.722;2023-07-29T02:44:24;5.33;;;3.70;;
13222;SDS011;6676;45.192;5.722;2023-07-29T02:47:16;3.85;;;3.10;;
13222;SDS011;6676;45.192;5.722;2023-07-29T02:50:07;4.05;;;3.40;;
13222;SDS011;6676;45.192;5.722;2023-07-29T02:52:59;3.47;;;3.17;;
13222;SDS011;6676;45.192;5.722;2023-07-29T02:58:30;3.92;;;3.10;;
13222;SDS011;6676;45.192;5.722;2023-07-29T03:01:24;4.00;;;3.42;;
13222;SDS011;6676;45.192;5.722;2023-07-29T03:06:58;3.95;;;3.35;;
13222;SDS011;6676;45.192;5.722;2023-07-29T03:09:50;6.30;;;3.85;;
13222;SDS011;6676;45.192;5.722;2023-07-29T03:12:41;4.92;;;3.10;;
13222;SDS011;6676;45.192;5.722;2023-07-29T03:15:33;3.67;;;3.25;;
13222;SDS011;6676;45.192;5.722;2023-07-29T03:18:24;4.10;;;3.12;;
13222;SDS011;6676;45.192;5.722;2023-07-29T03:21:15;4.58;;;3.20;;
13222;SDS011;6676;45.192;5.722;2023-07-29T03:24:07;4.25;;;3.10;;
13222;SDS011;6676;45.192;5.722;2023-07-29T03:26:58;3.75;;;3.33;;
13222;SDS011;6676;45.192;5.722;2023-07-29T03:29:50;3.70;;;3.37;;
13222;SDS011;6676;45.192;5.722;2023-07-29T03:32:43;3.90;;;3.17;;
13222;SDS011;6676;45.192;5.722;2023-07-29T03:35:35;5.50;;;3.20;;
13222;SDS011;6676;45.192;5.722;2023-07-29T03:38:26;4.67;;;3.20;;
13222;SDS011;6676;45.192;5.722;2023-07-29T03:41:07;4.28;;;3.17;;
13222;SDS011;6676;45.192;5.722;2023-07-29T03:43:59;4.00;;;3.20;;
13222;SDS011;6676;45.192;5.722;2023-07-29T03:46:50;3.72;;;3.30;;
13222;SDS011;6676;45.192;5.722;2023-07-29T03:49:42;4.62;;;3.35;;
13222;SDS011;6676;45.192;5.722;2023-07-29T03:52:35;4.72;;;3.10;;
13222;SDS011;6676;45.192;5.722;2023-07-29T03:55:26;3.50;;;3.20;;
13222;SDS011;6676;45.192;5.722;2023-07-29T03:58:18;3.80;;;3.02;;
13222;SDS011;6676;45.192;5.722;2023-07-29T04:01:10;4.10;;;3.20;;
13222;SDS011;6676;45.192;5.722;2023-07-29T04:04:02;4.17;;;3.25;;
13222;SDS011;6676;45.192;5.722;2023-07-29T04:06:43;3.83;;;3.25;;
13222;SDS011;6676;45.192;5.722;2023-07-29T04:12:12;3.70;;;3.20;;
13222;SDS011;6676;45.192;5.722;2023-07-29T04:15:04;4.12;;;3.58;;
13222;SDS011;6676;45.192;5.722;2023-07-29T04:17:57;3.45;;;3.12;;
13222;SDS011;6676;45.192;5.722;2023-07-29T04:20:50;3.65;;;3.27;;
13222;SDS011;6676;45.192;5.722;2023-07-29T04:26:19;4.37;;;3.65;;
13222;SDS011;6676;45.192;5.722;2023-07-29T04:29:10;7.75;;;4.20;;
13222;SDS011;6676;45.192;5.722;2023-07-29T04:32:01;5.53;;;3.60;;
13222;SDS011;6676;45.192;5.722;2023-07-29T04:34:53;3.58;;;3.27;;
13222;SDS011;6676;45.192;5.722;2023-07-29T04:37:44;3.77;;;3.15;;
13222;SDS011;6676;45.192;5.722;2023-07-29T04:43:16;5.08;;;3.42;;
13222;SDS011;6676;45.192;5.722;2023-07-29T04:46:07;4.58;;;3.70;;
13222;SDS011;6676;45.192;5.722;2023-07-29T04:51:36;7.22;;;4.37;;
13222;SDS011;6676;45.192;5.722;2023-07-29T04:57:08;5.97;;;4.35;;
13222;SDS011;6676;45.192;5.722;2023-07-29T05:00:00;5.78;;;3.90;;
13222;SDS011;6676;45.192;5.722;2023-07-29T05:02:51;5.47;;;3.87;;
13222;SDS011;6676;45.192;5.722;2023-07-29T05:05:43;3.60;;;3.17;;
13222;SDS011;6676;45.192;5.722;2023-07-29T05:11:13;4.40;;;3.50;;
13222;SDS011;6676;45.192;5.722;2023-07-29T05:16:44;4.10;;;3.62;;
13222;SDS011;6676;45.192;5.722;2023-07-29T05:19:36;5.62;;;3.83;;
13222;SDS011;6676;45.192;5.722;2023-07-29T05:22:27;5.10;;;4.10;;
13222;SDS011;6676;45.192;5.722;2023-07-29T05:25:18;4.30;;;3.90;;
13222;SDS011;6676;45.192;5.722;2023-07-29T05:28:10;4.45;;;3.52;;
13222;SDS011;6676;45.192;5.722;2023-07-29T05:30:50;4.10;;;3.70;;
13222;SDS011;6676;45.192;5.722;2023-07-29T05:36:20;3.90;;;3.50;;
13222;SDS011;6676;45.192;5.722;2023-07-29T05:42:13;4.97;;;4.00;;
13222;SDS011;6676;45.192;5.722;2023-07-29T05:45:06;4.25;;;3.80;;
13222;SDS011;6676;45.192;5.722;2023-07-29T05:50:36;5.20;;;3.70;;
13222;SDS011;6676;45.192;5.722;2023-07-29T05:53:27;4.50;;;3.40;;
13222;SDS011;6676;45.192;5.722;2023-07-29T05:56:18;5.20;;;3.58;;
13222;SDS011;6676;45.192;5.722;2023-07-29T05:59:12;4.22;;;3.50;;
13222;SDS011;6676;45.192;5.722;2023-07-29T06:02:03;4.72;;;3.10;;
13222;SDS011;6676;45.192;5.722;2023-07-29T06:04:56;3.70;;;3.30;;
13222;SDS011;6676;45.192;5.722;2023-07-29T06:07:47;5.10;;;2.92;;
13222;SDS011;6676;45.192;5.722;2023-07-29T06:10:38;5.75;;;3.70;;
13222;SDS011;6676;45.192;5.722;2023-07-29T06:16:09;5.33;;;3.33;;
13222;SDS011;6676;45.192;5.722;2023-07-29T06:21:40;7.03;;;3.60;;
13222;SDS011;6676;45.192;5.722;2023-07-29T06:24:32;4.08;;;3.52;;
13222;SDS011;6676;45.192;5.722;2023-07-29T06:27:23;4.95;;;3.92;;
13222;SDS011;6676;45.192;5.722;2023-07-29T06:30:04;7.92;;;4.08;;
13222;SDS011;6676;45.192;5.722;2023-07-29T06:32:57;4.47;;;4.03;;
13222;SDS011;6676;45.192;5.722;2023-07-29T06:35:48;5.85;;;4.03;;
13222;SDS011;6676;45.192;5.722;2023-07-29T06:41:19;9.00;;;4.30;;
13222;SDS011;6676;45.192;5.722;2023-07-29T06:44:10;8.18;;;4.80;;
13222;SDS011;6676;45.192;5.722;2023-07-29T06:47:02;5.22;;;3.98;;
13222;SDS011;6676;45.192;5.722;2023-07-29T06:49:55;5.42;;;3.92;;
13222;SDS011;6676;45.192;5.722;2023-07-29T06:52:46;4.75;;;3.90;;
13222;SDS011;6676;45.192;5.722;2023-07-29T06:55:38;5.17;;;3.80;;
13222;SDS011;6676;45.192;5.722;2023-07-29T07:01:09;7.28;;;3.95;;
13222;SDS011;6676;45.192;5.722;2023-07-29T07:04:03;4.12;;;3.62;;
13222;SDS011;6676;45.192;5.722;2023-07-29T07:06:55;5.33;;;3.80;;
13222;SDS011;6676;45.192;5.722;2023-07-29T07:09:48;4.30;;;3.90;;
13222;SDS011;6676;45.192;5.722;2023-07-29T07:12:39;6.42;;;3.65;;
13222;SDS011;6676;45.192;5.722;2023-07-29T07:15:34;4.75;;;3.95;;
13222;SDS011;6676;45.192;5.722;2023-07-29T07:21:04;5.72;;;3.80;;
13222;SDS011;6676;45.192;5.722;2023-07-29T07:23:55;5.10;;;4.05;;
13222;SDS011;6676;45.192;5.722;2023-07-29T07:26:47;4.17;;;3.77;;
13222;SDS011;6676;45.192;5.722;2023-07-29T07:29:38;6.45;;;3.80;;
13222;SDS011;6676;45.192;5.722;2023-07-29T07:32:30;5.83;;;4.28;;
13222;SDS011;6676;45.192;5.722;2023-07-29T07:35:22;5.60;;;3.45;;
13222;SDS011;6676;45.192;5.722;2023-07-29T07:38:13;5.85;;;3.83;;
13222;SDS011;6676;45.192;5.722;2023-07-29T07:41:04;5.75;;;3.65;;
13222;SDS011;6676;45.192;5.722;2023-07-29T07:43:44;4.87;;;4.00;;
13222;SDS011;6676;45.192;5.722;2023-07-29T07:49:16;5.25;;;3.60;;
13222;SDS011;6676;45.192;5.722;2023-07-29T07:52:07;4.70;;;3.40;;
13222;SDS011;6676;45.192;5.722;2023-07-29T07:54:58;4.95;;;3.75;;
13222;SDS011;6676;45.192;5.722;2023-07-29T07:57:55;5.97;;;3.72;;
13222;SDS011;6676;45.192;5.722;2023-07-29T08:00:46;4.20;;;3.22;;
13222;SDS011;6676;45.192;5.722;2023-07-29T08:03:37;4.30;;;3.40;;
13222;SDS011;6676;45.192;5.722;2023-07-29T08:06:29;4.25;;;3.35;;
13222;SDS011;6676;45.192;5.722;2023-07-29T08:09:21;3.90;;;3.25;;
13222;SDS011;6676;45.192;5.722;2023-07-29T08:12:05;3.45;;;3.15;;
13222;SDS011;6676;45.192;5.722;2023-07-29T08:14:57;3.75;;;3.35;;
13222;SDS011;6676;45.192;5.722;2023-07-29T08:17:48;4.35;;;3.22;;
13222;SDS011;6676;45.192;5.722;2023-07-29T08:23:19;5.75;;;3.30;;
13222;SDS011;6676;45.192;5.722;2023-07-29T08:26:11;3.40;;;3.10;;
13222;SDS011;6676;45.192;5.722;2023-07-29T08:31:42;4.35;;;3.55;;
13222;SDS011;6676;45.192;5.722;2023-07-29T08:34:33;6.25;;;4.20;;
13222;SDS011;6676;45.192;5.722;2023-07-29T08:37:24;5.62;;;4.03;;
13222;SDS011;6676;45.192;5.722;2023-07-29T08:40:16;5.53;;;4.20;;
13222;SDS011;6676;45.192;5.722;2023-07-29T08:43:09;4.53;;;4.05;;
13222;SDS011;6676;45.192;5.722;2023-07-29T08:46:01;5.83;;;3.92;;
13222;SDS011;6676;45.192;5.722;2023-07-29T08:48:43;6.70;;;3.90;;
13222;SDS011;6676;45.192;5.722;2023-07-29T08:51:35;4.37;;;3.98;;
13222;SDS011;6676;45.192;5.722;2023-07-29T08:54:27;5.80;;;4.00;;
13222;SDS011;6676;45.192;5.722;2023-07-29T08:57:07;5.78;;;4.05;;
13222;SDS011;6676;45.192;5.722;2023-07-29T08:59:59;4.60;;;3.72;;
13222;SDS011;6676;45.192;5.722;2023-07-29T09:02:52;4.35;;;3.95;;
13222;SDS011;6676;45.192;5.722;2023-07-29T09:05:42;5.17;;;3.98;;
13222;SDS011;6676;45.192;5.722;2023-07-29T09:08:45;5.90;;;4.40;;
13222;SDS011;6676;45.192;5.722;2023-07-29T09:11:38;4.72;;;4.25;;
13222;SDS011;6676;45.192;5.722;2023-07-29T09:14:29;7.30;;;4.17;;
13222;SDS011;6676;45.192;5.722;2023-07-29T09:17:20;6.00;;;4.05;;
13222;SDS011;6676;45.192;5.722;2023-07-29T09:20:12;5.65;;;4.50;;
13222;SDS011;6676;45.192;5.722;2023-07-29T09:23:03;5.35;;;4.70;;
13222;SDS011;6676;45.192;5.722;2023-07-29T09:26:01;4.78;;;4.25;;
13222;SDS011;6676;45.192;5.722;2023-07-29T09:28:53;5.10;;;4.60;;
13222;SDS011;6676;45.192;5.722;2023-07-29T09:31:46;4.70;;;4.12;;
13222;SDS011;6676;45.192;5.722;2023-07-29T09:34:38;4.83;;;4.33;;
13222;SDS011;6676;45.192;5.722;2023-07-29T09:37:31;4.65;;;4.15;;
13222;SDS011;6676;45.192;5.722;2023-07-29T09:40:13;6.47;;;4.35;;
13222;SDS011;6676;45.192;5.722;2023-07-29T09:43:05;5.37;;;4.75;;
13222;SDS011;6676;45.192;5.722;2023-07-29T09:46:00;5.78;;;5.20;;
13222;SDS011;6676;45.192;5.722;2023-07-29T09:51:32;5.60;;;5.00;;
13222;SDS011;6676;45.192;5.722;2023-07-29T09:54:28;6.40;;;4.70;;
13222;SDS011;6676;45.192;5.722;2023-07-29T09:57:12;5.53;;;4.50;;
13222;SDS011;6676;45.192;5.722;2023-07-29T10:00:07;4.12;;;3.77;;
13222;SDS011;6676;45.192;5.722;2023-07-29T10:03:01;4.62;;;3.87;;
13222;SDS011;6676;45.192;5.722;2023-07-29T10:05:53;3.52;;;2.83;;
13222;SDS011;6676;45.192;5.722;2023-07-29T10:08:45;3.35;;;3.05;;
13222;SDS011;6676;45.192;5.722;2023-07-29T10:11:37;4.12;;;3.15;;
13222;SDS011;6676;45.192;5.722;2023-07-29T10:14:20;4.12;;;3.17;;
13222;SDS011;6676;45.192;5.722;2023-07-29T10:17:12;3.92;;;3.25;;
13222;SDS011;6676;45.192;5.722;2023-07-29T10:20:06;3.25;;;2.95;;
13222;SDS011;6676;45.192;5.722;2023-07-29T10:22:59;3.42;;;2.77;;
13222;SDS011;6676;45.192;5.722;2023-07-29T10:25:54;3.25;;;2.52;;
13222;SDS011;6676;45.192;5.722;2023-07-29T10:31:26;4.17;;;2.42;;
13222;SDS011;6676;45.192;5.722;2023-07-29T10:34:19;2.80;;;2.60;;
13222;SDS011;6676;45.192;5.722;2023-07-29T10:37:11;2.50;;;2.30;;
13222;SDS011;6676;45.192;5.722;2023-07-29T10:42:58;3.10;;;2.55;;
13222;SDS011;6676;45.192;5.722;2023-07-29T10:45:50;3.67;;;2.40;;
13222;SDS011;6676;45.192;5.722;2023-07-29T10:48:44;2.40;;;2.05;;
13222;SDS011;6676;45.192;5.722;2023-07-29T10:51:42;3.12;;;2.58;;
13222;SDS011;6676;45.192;5.722;2023-07-29T10:57:24;2.98;;;2.12;;
13222;SDS011;6676;45.192;5.722;2023-07-29T11:00:22;4.25;;;2.10;;
13222;SDS011;6676;45.192;5.722;2023-07-29T11:03:05;4.42;;;2.42;;
13222;SDS011;6676;45.192;5.722;2023-07-29T11:08:36;2.52;;;2.33;;
13222;SDS011;6676;45.192;5.722;2023-07-29T11:11:27;2.42;;;2.22;;
13222;SDS011;6676;45.192;5.722;2023-07-29T11:16:57;2.62;;;2.12;;
13222;SDS011;6676;45.192;5.722;2023-07-29T11:19:49;2.47;;;2.20;;
13222;SDS011;6676;45.192;5.722;2023-07-29T11:22:41;2.80;;;2.40;;
13222;SDS011;6676;45.192;5.722;2023-07-29T11:25:32;2.27;;;2.08;;
13222;SDS011;6676;45.192;5.722;2023-07-29T11:28:24;3.00;;;2.60;;
13222;SDS011;6676;45.192;5.722;2023-07-29T11:31:17;3.62;;;2.10;;
13222;SDS011;6676;45.192;5.722;2023-07-29T11:34:08;2.30;;;2.10;;
13222;SDS011;6676;45.192;5.722;2023-07-29T11:37:03;2.67;;;2.10;;
13222;SDS011;6676;45.192;5.722;2023-07-29T11:39:55;2.30;;;2.10;;
13222;SDS011;6676;45.192;5.722;2023-07-29T11:42:47;3.55;;;2.40;;
13222;SDS011;6676;45.192;5.722;2023-07-29T11:45:28;2.50;;;2.30;;
13222;SDS011;6676;45.192;5.722;2023-07-29T11:48:26;3.55;;;2.50;;
13222;SDS011;6676;45.192;5.722;2023-07-29T11:51:07;2.90;;;2.33;;
13222;SDS011;6676;45.192;5.722;2023-07-29T11:56:39;3.10;;;2.62;;
13222;SDS011;6676;45.192;5.722;2023-07-29T11:59:31;3.67;;;2.50;;
13222;SDS011;6676;45.192;5.722;2023-07-29T12:02:25;3.80;;;3.37;;
13222;SDS011;6676;45.192;5.722;2023-07-29T12:05:17;3.33;;;3.02;;
13222;SDS011;6676;45.192;5.722;2023-07-29T12:08:11;4.15;;;3.37;;
13222;SDS011;6676;45.192;5.722;2023-07-29T12:13:42;4.42;;;3.95;;
13222;SDS011;6676;45.192;5.722;2023-07-29T12:16:40;4.08;;;3.72;;
13222;SDS011;6676;45.192;5.722;2023-07-29T12:19:32;4.90;;;3.62;;
13222;SDS011;6676;45.192;5.722;2023-07-29T12:22:24;3.92;;;3.52;;
13222;SDS011;6676;45.192;5.722;2023-07-29T12:25:15;4.95;;;3.37;;
13222;SDS011;6676;45.192;5.722;2023-07-29T12:28:07;4.42;;;3.45;;
13222;SDS011;6676;45.192;5.722;2023-07-29T12:30:58;3.75;;;3.45;;
13222;SDS011;6676;45.192;5.722;2023-07-29T12:36:41;4.08;;;3.65;;
13222;SDS011;6676;45.192;5.722;2023-07-29T12:39:34;3.98;;;3.22;;
13222;SDS011;6676;45.192;5.722;2023-07-29T12:42:27;3.37;;;3.08;;
13222;SDS011;6676;45.192;5.722;2023-07-29T12:45:08;4.97;;;3.30;;
13222;SDS011;6676;45.192;5.722;2023-07-29T12:48:00;3.70;;;3.30;;
13222;SDS011;6676;45.192;5.722;2023-07-29T12:50:51;4.15;;;3.37;;
13222;SDS011;6676;45.192;5.722;2023-07-29T12:56:22;3.33;;;3.02;;
13222;SDS011;6676;45.192;5.722;2023-07-29T13:01:52;3.80;;;3.40;;
13222;SDS011;6676;45.192;5.722;2023-07-29T13:04:46;3.60;;;3.10;;
13222;SDS011;6676;45.192;5.722;2023-07-29T13:07:37;3.60;;;3.30;;
13222;SDS011;6676;45.192;5.722;2023-07-29T13:13:08;3.85;;;3.42;;
13222;SDS011;6676;45.192;5.722;2023-07-29T13:15:59;5.70;;;3.22;;
13222;SDS011;6676;45.192;5.722;2023-07-29T13:21:30;3.37;;;3.08;;
13222;SDS011;6676;45.192;5.722;2023-07-29T13:24:22;3.62;;;3.00;;
13222;SDS011;6676;45.192;5.722;2023-07-29T13:27:13;4.22;;;2.85;;
13222;SDS011;6676;45.192;5.722;2023-07-29T13:32:44;4.40;;;3.20;;
13222;SDS011;6676;45.192;5.722;2023-07-29T13:35:35;4.00;;;2.95;;
13222;SDS011;6676;45.192;5.722;2023-07-29T13:38:15;3.47;;;3.17;;
13222;SDS011;6676;45.192;5.722;2023-07-29T13:41:08;6.00;;;2.92;;
13222;SDS011;6676;45.192;5.722;2023-07-29T13:43:59;3.25;;;2.72;;
13222;SDS011;6676;45.192;5.722;2023-07-29T13:46:50;3.75;;;2.95;;
13222;SDS011;6676;45.192;5.722;2023-07-29T13:49:42;5.78;;;3.02;;
13222;SDS011;6676;45.192;5.722;2023-07-29T13:55:14;3.45;;;2.92;;
13222;SDS011;6676;45.192;5.722;2023-07-29T13:58:06;4.58;;;3.02;;
13222;SDS011;6676;45.192;5.722;2023-07-29T14:00:57;3.25;;;2.75;;
13222;SDS011;6676;45.192;5.722;2023-07-29T14:06:28;6.08;;;2.98;;
13222;SDS011;6676;45.192;5.722;2023-07-29T14:09:21;2.65;;;2.45;;
13222;SDS011;6676;45.192;5.722;2023-07-29T14:12:12;3.10;;;2.80;;
13222;SDS011;6676;45.192;5.722;2023-07-29T14:15:05;3.00;;;2.67;;
13222;SDS011;6676;45.192;5.722;2023-07-29T14:17:57;3.17;;;2.80;;
13222;SDS011;6676;45.192;5.722;2023-07-29T14:20:49;4.35;;;3.10;;
13222;SDS011;6676;45.192;5.722;2023-07-29T14:23:40;3.98;;;2.83;;
13222;SDS011;6676;45.192;5.722;2023-07-29T14:26:21;2.95;;;2.70;;
13222;SDS011;6676;45.192;5.722;2023-07-29T14:29:12;4.00;;;2.87;;
13222;SDS011;6676;45.192;5.722;2023-07-29T14:32:04;4.55;;;2.77;;
13222;SDS011;6676;45.192;5.722;2023-07-29T14:34:56;2.40;;;2.20;;
13222;SDS011;6676;45.192;5.722;2023-07-29T14:37:49;3.45;;;2.65;;
13222;SDS011;6676;45.192;5.722;2023-07-29T14:40:40;3.25;;;2.77;;
13222;SDS011;6676;45.192;5.722;2023-07-29T14:43:31;3.85;;;2.60;;
13222;SDS011;6676;45.192;5.722;2023-07-29T14:46:23;2.62;;;2.40;;
13222;SDS011;6676;45.192;5.722;2023-07-29T14:49:15;3.00;;;2.62;;
13222;SDS011;6676;45.192;5.722;2023-07-29T14:52:07;2.83;;;2.40;;
13222;SDS011;6676;45.192;5.722;2023-07-29T14:54:59;2.77;;;2.55;;
13222;SDS011;6676;45.192;5.722;2023-07-29T14:57:50;4.00;;;2.50;;
13222;SDS011;6676;45.192;5.722;2023-07-29T15:00:41;3.87;;;2.67;;
13222;SDS011;6676;45.192;5.722;2023-07-29T15:03:33;2.47;;;2.22;;
13222;SDS011;6676;45.192;5.722;2023-07-29T15:06:24;2.90;;;2.60;;
13222;SDS011;6676;45.192;5.722;2023-07-29T15:09:17;2.60;;;2.40;;
13222;SDS011;6676;45.192;5.722;2023-07-29T15:12:09;2.98;;;2.30;;
13222;SDS011;6676;45.192;5.722;2023-07-29T15:15:00;2.92;;;2.35;;
13222;SDS011;6676;45.192;5.722;2023-07-29T15:17:52;2.70;;;2.50;;
13222;SDS011;6676;45.192;5.722;2023-07-29T15:20:45;3.17;;;2.62;;
13222;SDS011;6676;45.192;5.722;2023-07-29T15:23:39;3.08;;;2.27;;
13222;SDS011;6676;45.192;5.722;2023-07-29T15:26:31;3.20;;;2.52;;
13222;SDS011;6676;45.192;5.722;2023-07-29T15:29:24;3.08;;;2.20;;
13222;SDS011;6676;45.192;5.722;2023-07-29T15:32:15;2.60;;;2.40;;
13222;SDS011;6676;45.192;5.722;2023-07-29T15:35:09;3.22;;;2.83;;
13222;SDS011;6676;45.192;5.722;2023-07-29T15:38:25;4.15;;;2.87;;
13222;SDS011;6676;45.192;5.722;2023-07-29T15:41:16;2.92;;;2.65;;
13222;SDS011;6676;45.192;5.722;2023-07-29T15:44:07;3.33;;;2.77;;
13222;SDS011;6676;45.192;5.722;2023-07-29T15:46:59;3.15;;;2.85;;
13222;SDS011;6676;45.192;5.722;2023-07-29T15:49:50;3.12;;;2.87;;
13222;SDS011;6676;45.192;5.722;2023-07-29T15:52:41;3.27;;;2.98;;
13222;SDS011;6676;45.192;5.722;2023-07-29T15:55:32;3.72;;;2.95;;
13222;SDS011;6676;45.192;5.722;2023-07-29T15:58:23;3.62;;;3.10;;
13222;SDS011;6676;45.192;5.722;2023-07-29T16:01:15;3.83;;;2.90;;
13222;SDS011;6676;45.192;5.722;2023-07-29T16:04:06;4.37;;;3.12;;
13222;SDS011;6676;45.192;5.722;2023-07-29T16:06:58;2.72;;;2.47;;
13222;SDS011;6676;45.192;5.722;2023-07-29T16:09:49;2.72;;;2.52;;
13222;SDS011;6676;45.192;5.722;2023-07-29T16:12:40;3.15;;;2.65;;
13222;SDS011;6676;45.192;5.722;2023-07-29T16:15:33;3.17;;;2.80;;
13222;SDS011;6676;45.192;5.722;2023-07-29T16:18:24;3.37;;;2.50;;
13222;SDS011;6676;45.192;5.722;2023-07-29T16:21:15;2.83;;;2.52;;
13222;SDS011;6676;45.192;5.722;2023-07-29T16:24:06;5.92;;;2.85;;
13222;SDS011;6676;45.192;5.722;2023-07-29T16:26:57;3.22;;;2.80;;
13222;SDS011;6676;45.192;5.722;2023-07-29T16:29:49;5.00;;;2.70;;
13222;SDS011;6676;45.192;5.722;2023-07-29T16:32:40;3.58;;;2.50;;
13222;SDS011;6676;45.192;5.722;2023-07-29T16:35:31;3.15;;;2.85;;
13222;SDS011;6676;45.192;5.722;2023-07-29T16:38:23;4.33;;;2.70;;
13222;SDS011;6676;45.192;5.722;2023-07-29T16:41:15;5.33;;;3.33;;
13222;SDS011;6676;45.192;5.722;2023-07-29T16:44:08;4.22;;;2.72;;
13222;SDS011;6676;45.192;5.722;2023-07-29T16:46:59;3.62;;;2.60;;
13222;SDS011;6676;45.192;5.722;2023-07-29T16:49:50;3.20;;;2.83;;
13222;SDS011;6676;45.192;5.722;2023-07-29T16:52:46;3.70;;;2.95;;
13222;SDS011;6676;45.192;5.722;2023-07-29T16:55:39;5.70;;;3.08;;
13222;SDS011;6676;45.192;5.722;2023-07-29T16:58:30;4.17;;;2.90;;
13222;SDS011;6676;45.192;5.722;2023-07-29T17:01:22;3.92;;;2.98;;
13222;SDS011;6676;45.192;5.722;2023-07-29T17:04:13;4.53;;;2.33;;
13222;SDS011;6676;45.192;5.722;2023-07-29T17:07:04;3.25;;;2.55;;
13222;SDS011;6676;45.192;5.722;2023-07-29T17:09:56;3.75;;;3.17;;
13222;SDS011;6676;45.192;5.722;2023-07-29T17:12:47;4.62;;;3.30;;
13222;SDS011;6676;45.192;5.722;2023-07-29T17:15:38;6.17;;;3.92;;
13222;SDS011;6676;45.192;5.722;2023-07-29T17:18:30;5.67;;;3.98;;
13222;SDS011;6676;45.192;5.722;2023-07-29T17:21:22;7.65;;;3.83;;
13222;SDS011;6676;45.192;5.722;2023-07-29T17:24:13;6.25;;;3.72;;
13222;SDS011;6676;45.192;5.722;2023-07-29T17:27:11;6.03;;;3.62;;
13222;SDS011;6676;45.192;5.722;2023-07-29T17:30:03;6.60;;;3.00;;
13222;SDS011;6676;45.192;5.722;2023-07-29T17:32:55;4.97;;;2.80;;
13222;SDS011;6676;45.192;5.722;2023-07-29T17:35:48;5.62;;;2.98;;
13222;SDS011;6676;45.192;5.722;2023-07-29T17:38:40;3.98;;;2.70;;
13222;SDS011;6676;45.192;5.722;2023-07-29T17:41:31;4.08;;;3.00;;
13222;SDS011;6676;45.192;5.722;2023-07-29T17:44:23;5.05;;;3.58;;
13222;SDS011;6676;45.192;5.722;2023-07-29T17:47:14;6.37;;;3.98;;
13222;SDS011;6676;45.192;5.722;2023-07-29T17:50:07;5.60;;;4.20;;
13222;SDS011;6676;45.192;5.722;2023-07-29T17:52:59;7.95;;;4.83;;
13222;SDS011;6676;45.192;5.722;2023-07-29T17:55:50;8.23;;;4.83;;
13222;SDS011;6676;45.192;5.722;2023-07-29T17:58:41;6.42;;;4.22;;
13222;SDS011;6676;45.192;5.722;2023-07-29T18:01:33;5.87;;;4.03;;
13222;SDS011;6676;45.192;5.722;2023-07-29T18:04:24;4.87;;;3.95;;
13222;SDS011;6676;45.192;5.722;2023-07-29T18:07:15;5.40;;;3.60;;
13222;SDS011;6676;45.192;5.722;2023-07-29T18:10:07;5.33;;;3.58;;
13222;SDS011;6676;45.192;5.722;2023-07-29T18:12:59;3.87;;;2.98;;
13222;SDS011;6676;45.192;5.722;2023-07-29T18:15:52;5.42;;;3.72;;
13222;SDS011;6676;45.192;5.722;2023-07-29T18:18:46;5.62;;;3.80;;
13222;SDS011;6676;45.192;5.722;2023-07-29T18:21:38;5.40;;;3.47;;
13222;SDS011;6676;45.192;5.722;2023-07-29T18:24:31;6.80;;;4.35;;
13222;SDS011;6676;45.192;5.722;2023-07-29T18:27:23;4.33;;;3.60;;
13222;SDS011;6676;45.192;5.722;2023-07-29T18:30:15;5.80;;;3.50;;
13222;SDS011;6676;45.192;5.722;2023-07-29T18:33:06;5.65;;;3.75;;
13222;SDS011;6676;45.192;5.722;2023-07-29T18:35:57;4.17;;;3.40;;
13222;SDS011;6676;45.192;5.722;2023-07-29T18:38:49;7.28;;;4.37;;
13222;SDS011;6676;45.192;5.722;2023-07-29T18:41:40;4.17;;;3.42;;
13222;SDS011;6676;45.192;5.722;2023-07-29T18:44:32;3.83;;;2.98;;
13222;SDS011;6676;45.192;5.722;2023-07-29T18:47:24;5.78;;;4.10;;
13222;SDS011;6676;45.192;5.722;2023-07-29T18:50:15;5.47;;;4.42;;
13222;SDS011;6676;45.192;5.722;2023-07-29T18:53:06;6.05;;;4.87;;
13222;SDS011;6676;45.192;5.722;2023-07-29T18:55:58;7.20;;;5.15;;
13222;SDS011;6676;45.192;5.722;2023-07-29T18:58:49;8.53;;;5.47;;
13222;SDS011;6676;45.192;5.722;2023-07-29T19:01:40;7.03;;;5.50;;
13222;SDS011;6676;45.192;5.722;2023-07-29T19:04:32;7.87;;;5.40;;
13222;SDS011;6676;45.192;5.722;2023-07-29T19:07:23;5.80;;;4.12;;
13222;SDS011;6676;45.192;5.722;2023-07-29T19:10:14;5.55;;;4.08;;
13222;SDS011;6676;45.192;5.722;2023-07-29T19:13:06;6.65;;;3.87;;
13222;SDS011;6676;45.192;5.722;2023-07-29T19:15:57;5.22;;;3.77;;
13222;SDS011;6676;45.192;5.722;2023-07-29T19:18:50;7.22;;;4.37;;
13222;SDS011;6676;45.192;5.722;2023-07-29T19:21:42;5.45;;;4.70;;